createdAt,value
2023-07-18T00:01:07.392Z,1.00
2023-07-18T00:03:34.133Z,1.00
2023-07-18T00:06:00.645Z,1.10
2023-07-18T00:08:27.090Z,1.00
2023-07-18T00:10:53.562Z,0.90
2023-07-18T00:13:20.059Z,0.77
2023-07-18T00:15:46.555Z,0.95
2023-07-18T00:18:13.012Z,0.80
2023-07-18T00:20:39.459Z,0.80
2023-07-18T00:23:06.119Z,1.00
2023-07-18T00:25:32.798Z,0.90
2023-07-18T00:27:59.305Z,1.00
2023-07-18T00:30:25.829Z,0.70
2023-07-18T00:32:52.410Z,0.90
2023-07-18T00:35:19.244Z,0.70
2023-07-18T00:37:45.869Z,0.85
2023-07-18T00:40:14.490Z,0.80
2023-07-18T00:42:45.028Z,0.80
2023-07-18T00:45:11.955Z,0.90
2023-07-18T00:47:40.097Z,0.68
2023-07-18T00:50:07.877Z,0.80
2023-07-18T00:52:36.913Z,0.80
2023-07-18T00:55:04.193Z,0.80
2023-07-18T00:57:31.561Z,0.80
2023-07-18T00:59:58.400Z,0.65
2023-07-18T01:05:03.649Z,0.75
2023-07-18T01:07:30.361Z,0.70
2023-07-18T01:10:15.371Z,0.70
2023-07-18T01:12:41.952Z,0.90
2023-07-18T01:15:09.050Z,0.90
2023-07-18T01:17:35.829Z,0.90
2023-07-18T01:20:02.777Z,0.80
2023-07-18T01:22:29.323Z,0.70
2023-07-18T01:24:55.751Z,0.90
2023-07-18T01:27:22.194Z,0.73
2023-07-18T01:29:48.724Z,0.70
2023-07-18T01:32:15.186Z,0.63
2023-07-18T01:34:41.631Z,0.75
2023-07-18T01:37:08.060Z,0.68
2023-07-18T01:39:34.520Z,0.60
2023-07-18T01:42:01.025Z,0.65
2023-07-18T01:44:27.549Z,0.80
2023-07-18T01:46:54.091Z,0.80
2023-07-18T01:49:20.556Z,0.80
2023-07-18T01:51:46.999Z,0.70
2023-07-18T01:54:13.610Z,0.63
2023-07-18T01:56:40.054Z,0.73
2023-07-18T01:59:06.521Z,0.70
2023-07-18T02:01:33.041Z,0.70
2023-07-18T02:03:59.547Z,0.63
2023-07-18T02:06:26.047Z,0.73
2023-07-18T02:08:52.703Z,0.70
2023-07-18T02:11:19.431Z,0.80
2023-07-18T02:13:46.167Z,0.77
2023-07-18T02:16:12.680Z,0.80
2023-07-18T02:18:39.158Z,0.70
2023-07-18T02:21:05.681Z,0.70
2023-07-18T02:23:32.147Z,0.90
2023-07-18T02:25:58.622Z,0.60
2023-07-18T02:28:25.024Z,0.65
2023-07-18T02:30:53.128Z,0.70
2023-07-18T02:33:19.656Z,0.60
2023-07-18T02:35:50.773Z,0.95
2023-07-18T02:38:17.239Z,0.70
2023-07-18T02:40:43.766Z,0.60
2023-07-18T02:43:10.273Z,0.70
2023-07-18T02:45:36.863Z,0.60
2023-07-18T02:48:03.481Z,0.60
2023-07-18T02:50:30.006Z,0.70
2023-07-18T02:52:56.458Z,0.90
2023-07-18T02:55:22.900Z,0.70
2023-07-18T02:57:49.349Z,0.68
2023-07-18T03:00:15.913Z,0.77
2023-07-18T03:02:42.439Z,0.70
2023-07-18T03:05:09.031Z,0.73
2023-07-18T03:07:35.548Z,0.70
2023-07-18T03:10:02.201Z,0.88
2023-07-18T03:12:28.706Z,0.77
2023-07-18T03:14:55.113Z,0.80
2023-07-18T03:17:21.590Z,0.80
2023-07-18T03:19:48.112Z,0.80
2023-07-18T03:22:14.522Z,0.85
2023-07-18T03:24:40.966Z,0.80
2023-07-18T03:27:07.702Z,0.98
2023-07-18T03:29:34.364Z,0.82
2023-07-18T03:32:01.642Z,0.80
2023-07-18T03:34:28.382Z,0.73
2023-07-18T03:36:54.845Z,0.80
2023-07-18T03:39:21.315Z,0.90
2023-07-18T03:41:47.792Z,1.10
2023-07-18T03:44:14.246Z,0.93
2023-07-18T03:46:40.799Z,1.00
2023-07-18T03:49:07.323Z,0.93
2023-07-18T03:51:34.679Z,0.90
2023-07-18T03:54:04.467Z,0.90
2023-07-18T03:56:31.514Z,1.00
2023-07-18T03:58:58.001Z,0.90
2023-07-18T04:01:24.472Z,1.10
2023-07-18T04:03:51.448Z,1.00
2023-07-18T04:06:17.956Z,0.85
2023-07-18T04:08:44.421Z,0.90
2023-07-18T04:11:10.940Z,1.10
2023-07-18T04:13:37.348Z,1.05
2023-07-18T04:16:05.468Z,0.90
2023-07-18T04:18:32.003Z,1.00
2023-07-18T04:21:02.122Z,1.08
2023-07-18T04:23:29.361Z,0.90
2023-07-18T04:26:00.748Z,1.15
2023-07-18T04:28:32.083Z,0.90
2023-07-18T04:30:58.545Z,0.90
2023-07-18T04:33:25.432Z,0.93
2023-07-18T04:35:51.948Z,1.10
2023-07-18T04:38:18.802Z,1.17
2023-07-18T04:40:45.431Z,1.10
2023-07-18T04:43:12.292Z,1.10
2023-07-18T04:45:46.436Z,0.95
2023-07-18T04:48:16.914Z,1.00
2023-07-18T04:50:44.609Z,1.02
2023-07-18T04:53:11.748Z,1.13
2023-07-18T04:55:39.441Z,1.20
2023-07-18T04:58:07.158Z,1.30
2023-07-18T05:00:34.520Z,1.13
2023-07-18T05:03:01.624Z,1.02
2023-07-18T05:05:29.112Z,1.10
2023-07-18T05:07:56.640Z,1.05
2023-07-18T05:10:23.816Z,1.30
2023-07-18T05:12:54.660Z,1.20
2023-07-18T05:15:21.243Z,1.00
2023-07-18T05:17:48.068Z,1.42
2023-07-18T05:20:14.930Z,1.10
2023-07-18T05:22:43.020Z,1.30
2023-07-18T05:25:11.838Z,1.50
2023-07-18T05:27:40.256Z,1.23
2023-07-18T05:30:11.732Z,1.20
2023-07-18T05:32:38.277Z,1.38
2023-07-18T05:35:05.176Z,1.45
2023-07-18T05:37:31.637Z,1.25
2023-07-18T05:39:58.084Z,1.60
2023-07-18T05:42:24.530Z,1.50
2023-07-18T05:44:50.957Z,1.60
2023-07-18T05:47:17.424Z,1.60
2023-07-18T05:49:43.941Z,1.88
2023-07-18T05:52:10.405Z,1.70
2023-07-18T05:54:39.324Z,1.70
2023-07-18T05:57:06.485Z,1.70
2023-07-18T05:59:33.701Z,1.90
2023-07-18T06:02:00.177Z,1.98
2023-07-18T06:04:26.716Z,2.35
2023-07-18T06:06:54.719Z,2.60
2023-07-18T06:09:21.182Z,2.88
2023-07-18T06:11:47.598Z,2.60
2023-07-18T06:14:14.125Z,3.30
2023-07-18T06:16:40.720Z,3.22
2023-07-18T06:19:07.508Z,2.90
2023-07-18T06:21:33.914Z,3.10
2023-07-18T06:24:12.855Z,2.97
2023-07-18T06:29:11.459Z,3.17
2023-07-18T06:31:38.051Z,3.53
2023-07-18T06:34:04.593Z,3.35
2023-07-18T06:36:31.043Z,3.85
2023-07-18T06:38:57.554Z,3.75
2023-07-18T06:41:24.009Z,3.63
2023-07-18T06:43:50.518Z,3.50
2023-07-18T06:46:16.996Z,3.70
2023-07-18T06:48:43.475Z,3.90
2023-07-18T06:51:09.931Z,4.07
2023-07-18T06:53:36.371Z,3.75
2023-07-18T06:56:02.824Z,3.67
2023-07-18T06:58:29.305Z,3.58
2023-07-18T07:00:55.751Z,3.53
2023-07-18T07:03:22.312Z,3.42
2023-07-18T07:05:48.867Z,3.55
2023-07-18T07:08:15.425Z,3.55
2023-07-18T07:10:43.439Z,3.40
2023-07-18T07:13:10.565Z,3.08
2023-07-18T07:15:37.349Z,3.38
2023-07-18T07:18:04.383Z,3.33
2023-07-18T07:20:32.105Z,3.70
2023-07-18T07:22:58.703Z,3.17
2023-07-18T07:25:30.270Z,2.90
2023-07-18T07:27:57.539Z,3.00
2023-07-18T07:30:24.521Z,3.25
2023-07-18T07:32:52.262Z,3.45
2023-07-18T07:35:20.566Z,3.13
2023-07-18T07:37:47.991Z,3.10
2023-07-18T07:40:14.769Z,3.13
2023-07-18T07:42:44.744Z,3.10
2023-07-18T07:45:12.649Z,3.28
2023-07-18T07:47:39.178Z,2.65
2023-07-18T07:50:08.248Z,3.08
2023-07-18T07:52:35.799Z,3.28
2023-07-18T07:55:02.855Z,3.30
2023-07-18T07:57:30.206Z,3.00
2023-07-18T07:59:56.641Z,3.10
2023-07-18T08:02:23.195Z,3.10
2023-07-18T08:04:50.335Z,2.88
2023-07-18T08:07:17.389Z,3.42
2023-07-18T08:09:44.558Z,2.85
2023-07-18T08:12:12.357Z,2.83
2023-07-18T08:14:39.401Z,2.78
2023-07-18T08:17:06.840Z,2.83
2023-07-18T08:19:33.956Z,2.83
2023-07-18T08:22:00.837Z,2.40
2023-07-18T08:24:27.400Z,2.97
2023-07-18T08:26:53.853Z,2.80
2023-07-18T08:29:20.479Z,2.63
2023-07-18T08:31:47.087Z,2.83
2023-07-18T08:34:13.576Z,2.70
2023-07-18T08:36:40.060Z,2.45
2023-07-18T08:39:11.392Z,2.95
2023-07-18T08:41:42.536Z,2.88
2023-07-18T08:44:10.869Z,2.80
2023-07-18T08:46:37.406Z,2.65
2023-07-18T08:49:06.222Z,2.60
2023-07-18T08:51:33.013Z,2.20
2023-07-18T08:53:59.510Z,2.78
2023-07-18T08:56:26.409Z,2.60
2023-07-18T08:58:53.192Z,2.63
2023-07-18T09:01:19.912Z,2.30
2023-07-18T09:03:46.765Z,2.50
2023-07-18T09:06:22.783Z,2.20
2023-07-18T09:08:49.817Z,2.40
2023-07-18T09:11:21.683Z,2.58
2023-07-18T09:13:49.181Z,2.15
2023-07-18T09:16:20.780Z,2.47
2023-07-18T09:18:57.104Z,2.28
2023-07-18T09:21:24.498Z,2.30
2023-07-18T09:23:52.034Z,2.38
2023-07-18T09:26:20.824Z,2.40
2023-07-18T09:28:48.265Z,2.25
2023-07-18T09:31:26.522Z,2.30
2023-07-18T09:33:54.648Z,2.60
2023-07-18T09:36:23.101Z,2.38
2023-07-18T09:38:50.977Z,2.25
2023-07-18T09:41:21.077Z,2.28
2023-07-18T09:43:49.045Z,2.20
2023-07-18T09:46:17.568Z,2.20
2023-07-18T09:48:47.373Z,1.90
2023-07-18T09:51:16.774Z,2.10
2023-07-18T09:53:46.181Z,2.05
2023-07-18T09:56:15.511Z,2.03
2023-07-18T09:58:44.697Z,2.03
2023-07-18T10:01:13.444Z,1.95
2023-07-18T10:03:40.804Z,1.80
2023-07-18T10:06:08.771Z,1.90
2023-07-18T10:08:36.924Z,1.90
2023-07-18T10:11:03.776Z,1.80
2023-07-18T10:13:31.432Z,1.90
2023-07-18T10:16:13.286Z,2.00
2023-07-18T10:18:48.134Z,1.77
2023-07-18T10:21:28.183Z,1.83
2023-07-18T10:23:54.650Z,1.65
2023-07-18T10:26:34.656Z,1.60
2023-07-18T10:29:02.894Z,1.80
2023-07-18T10:31:36.911Z,1.70
2023-07-18T10:34:14.642Z,1.70
2023-07-18T10:36:55.176Z,1.75
2023-07-18T10:39:36.465Z,1.48
2023-07-18T10:42:06.865Z,1.40
2023-07-18T10:44:35.167Z,1.23
2023-07-18T10:47:01.669Z,1.60
2023-07-18T10:49:28.140Z,1.40
2023-07-18T10:51:57.602Z,1.60
2023-07-18T10:54:24.046Z,1.40
2023-07-18T10:56:50.559Z,1.52
2023-07-18T10:59:16.991Z,1.50
2023-07-18T11:01:43.471Z,1.38
2023-07-18T11:04:10.165Z,1.30
2023-07-18T11:06:36.660Z,1.55
2023-07-18T11:09:03.211Z,1.55
2023-07-18T11:11:29.768Z,1.42
2023-07-18T11:13:56.368Z,1.30
2023-07-18T11:16:23.415Z,1.50
2023-07-18T11:18:50.374Z,1.40
2023-07-18T11:21:21.056Z,1.35
2023-07-18T11:23:48.095Z,1.30
2023-07-18T11:26:19.205Z,1.33
2023-07-18T11:28:49.995Z,1.30
2023-07-18T11:31:41.496Z,1.35
2023-07-18T11:34:09.355Z,1.20
2023-07-18T11:36:37.540Z,1.40
2023-07-18T11:39:04.597Z,1.20
2023-07-18T11:41:36.012Z,1.50
2023-07-18T11:44:04.328Z,1.00
2023-07-18T11:46:42.059Z,1.00
2023-07-18T11:49:10.561Z,1.00
2023-07-18T11:51:37.349Z,1.20
2023-07-18T11:54:05.148Z,1.30
2023-07-18T11:56:32.067Z,1.15
2023-07-18T11:58:58.973Z,1.10
2023-07-18T12:01:25.523Z,1.23
2023-07-18T12:03:52.338Z,0.93
2023-07-18T12:06:23.260Z,1.10
2023-07-18T12:08:50.580Z,1.08
2023-07-18T12:11:17.720Z,1.20
2023-07-18T12:13:44.265Z,0.90
2023-07-18T12:16:11.130Z,0.95
2023-07-18T12:18:38.094Z,1.00
2023-07-18T12:21:04.562Z,0.90
2023-07-18T12:23:31.048Z,0.98
2023-07-18T12:25:57.555Z,1.10
2023-07-18T12:28:24.006Z,1.02
2023-07-18T12:30:50.543Z,0.95
2023-07-18T12:33:17.035Z,0.88
2023-07-18T12:35:43.562Z,1.00
2023-07-18T12:38:09.991Z,0.80
2023-07-18T12:40:36.646Z,1.08
2023-07-18T12:43:03.166Z,1.00
2023-07-18T12:45:29.673Z,0.82
2023-07-18T12:47:56.157Z,0.90
2023-07-18T12:50:24.122Z,0.90
2023-07-18T12:52:52.613Z,1.08
2023-07-18T12:55:19.154Z,0.90
2023-07-18T12:57:45.649Z,0.90
2023-07-18T13:00:12.513Z,0.90
2023-07-18T13:02:39.132Z,0.70
2023-07-18T13:05:05.864Z,0.82
2023-07-18T13:07:32.437Z,0.70
2023-07-18T13:09:58.890Z,0.90
2023-07-18T13:12:25.425Z,0.70
2023-07-18T13:14:51.836Z,0.88
2023-07-18T13:17:18.262Z,0.80
2023-07-18T13:19:44.720Z,0.85
2023-07-18T13:22:12.877Z,0.80
2023-07-18T13:24:40.214Z,0.80
2023-07-18T13:27:07.165Z,0.90
2023-07-18T13:29:35.237Z,0.70
2023-07-18T13:32:01.752Z,0.80
2023-07-18T13:34:28.357Z,0.75
2023-07-18T13:36:54.822Z,0.80
2023-07-18T13:39:21.261Z,0.77
2023-07-18T13:41:47.793Z,0.65
2023-07-18T13:44:14.288Z,0.65
2023-07-18T13:46:40.765Z,0.65
2023-07-18T13:49:07.233Z,0.70
2023-07-18T13:51:33.731Z,0.80
2023-07-18T13:54:00.172Z,0.70
2023-07-18T13:56:26.631Z,0.60
2023-07-18T13:58:53.080Z,0.82
2023-07-18T14:01:19.538Z,0.73
2023-07-18T14:03:46.182Z,0.80
2023-07-18T14:06:12.669Z,0.80
2023-07-18T14:08:39.170Z,0.70
2023-07-18T14:11:05.828Z,0.73
2023-07-18T14:13:32.874Z,0.70
2023-07-18T14:15:59.324Z,0.75
2023-07-18T14:18:25.795Z,0.80
2023-07-18T14:20:52.308Z,0.80
2023-07-18T14:23:18.977Z,0.70
2023-07-18T14:25:47.478Z,0.70
2023-07-18T14:28:13.995Z,0.80
2023-07-18T14:30:40.522Z,0.65
2023-07-18T14:33:07.063Z,0.80
2023-07-18T14:35:33.618Z,0.77
2023-07-18T14:38:00.058Z,0.70
2023-07-18T14:40:26.524Z,0.63
2023-07-18T14:42:53.023Z,0.50
2023-07-18T14:45:19.576Z,0.90
2023-07-18T14:47:46.067Z,0.80
2023-07-18T14:50:12.592Z,0.60
2023-07-18T14:52:39.050Z,0.60
2023-07-18T14:55:05.975Z,0.82
2023-07-18T14:57:32.559Z,0.60
2023-07-18T14:59:59.008Z,0.70
2023-07-18T15:02:25.502Z,0.75
2023-07-18T15:04:52.379Z,0.70
2023-07-18T15:07:18.933Z,0.70
2023-07-18T15:09:45.388Z,0.68
2023-07-18T15:12:11.945Z,0.70
2023-07-18T15:14:38.445Z,0.70
2023-07-18T15:17:05.148Z,0.73
2023-07-18T15:19:31.845Z,0.75
2023-07-18T15:21:58.331Z,0.80
2023-07-18T15:24:24.676Z,0.77
2023-07-18T15:26:51.164Z,0.60
2023-07-18T15:29:17.639Z,0.68
2023-07-18T15:31:44.117Z,0.80
2023-07-18T15:34:10.655Z,0.90
2023-07-18T15:36:37.132Z,0.63
2023-07-18T15:39:03.716Z,0.68
2023-07-18T15:41:30.169Z,0.70
2023-07-18T15:43:56.721Z,0.73
2023-07-18T15:46:23.513Z,0.80
2023-07-18T15:48:50.258Z,0.77
2023-07-18T15:51:16.793Z,4.05
2023-07-18T15:53:43.252Z,2.40
2023-07-18T15:56:09.768Z,2.30
2023-07-18T15:58:36.485Z,1.80
2023-07-18T16:01:03.110Z,1.50
2023-07-18T16:03:29.758Z,1.77
2023-07-18T16:05:56.444Z,1.83
2023-07-18T16:08:25.419Z,1.30
2023-07-18T16:10:52.432Z,1.00
2023-07-18T16:13:19.802Z,1.38
2023-07-18T16:15:46.373Z,1.02
2023-07-18T16:18:12.868Z,1.27
2023-07-18T16:20:39.399Z,0.90
2023-07-18T16:23:06.097Z,1.25
2023-07-18T16:25:32.652Z,1.55
2023-07-18T16:27:59.268Z,1.80
2023-07-18T16:30:25.887Z,1.85
2023-07-18T16:32:52.442Z,1.38
2023-07-18T16:35:19.019Z,1.58
2023-07-18T16:37:45.537Z,1.40
2023-07-18T16:40:12.151Z,1.30
2023-07-18T16:42:38.644Z,2.00
2023-07-18T16:45:05.547Z,2.10
2023-07-18T16:47:32.121Z,1.98
2023-07-18T16:49:58.720Z,1.55
2023-07-18T16:52:25.167Z,1.40
2023-07-18T16:54:51.592Z,1.40
2023-07-18T16:57:18.089Z,1.30
2023-07-18T16:59:44.552Z,1.33
2023-07-18T17:02:10.977Z,1.27
2023-07-18T17:04:37.598Z,1.30
2023-07-18T17:07:04.286Z,1.52
2023-07-18T17:09:30.752Z,1.15
2023-07-18T17:11:57.213Z,1.15
2023-07-18T17:14:23.784Z,0.90
2023-07-18T17:16:51.194Z,1.13
2023-07-18T17:19:17.764Z,2.60
2023-07-18T17:21:44.198Z,2.17
2023-07-18T17:24:10.680Z,1.83
2023-07-18T17:26:37.197Z,1.25
2023-07-18T17:29:03.705Z,1.30
2023-07-18T17:31:30.229Z,1.30
2023-07-18T17:33:56.835Z,1.23
2023-07-18T17:36:23.361Z,0.85
2023-07-18T17:38:49.789Z,1.38
2023-07-18T17:41:16.278Z,0.93
2023-07-18T17:43:42.845Z,1.10
2023-07-18T17:46:09.408Z,1.30
2023-07-18T17:48:35.899Z,1.00
2023-07-18T17:51:02.335Z,0.93
2023-07-18T17:53:28.900Z,1.40
2023-07-18T17:55:55.353Z,1.65
2023-07-18T17:58:21.812Z,1.48
2023-07-18T18:00:48.263Z,1.60
2023-07-18T18:03:14.877Z,1.33
2023-07-18T18:05:41.625Z,1.60
2023-07-18T18:08:08.143Z,1.40
2023-07-18T18:10:34.748Z,1.75
2023-07-18T18:13:01.242Z,1.40
2023-07-18T18:15:27.885Z,1.13
2023-07-18T18:17:55.101Z,1.35
2023-07-18T18:20:21.828Z,1.45
2023-07-18T18:22:48.423Z,1.30
2023-07-18T18:25:15.532Z,1.65
2023-07-18T18:27:43.511Z,1.20
2023-07-18T18:30:10.580Z,1.00
2023-07-18T18:32:37.034Z,1.27
2023-07-18T18:35:07.956Z,1.20
2023-07-18T18:37:36.918Z,1.23
2023-07-18T18:40:04.062Z,1.10
2023-07-18T18:42:30.682Z,1.23
2023-07-18T18:44:57.082Z,1.05
2023-07-18T18:47:23.509Z,1.10
2023-07-18T18:49:50.033Z,1.10
2023-07-18T18:52:16.523Z,1.02
2023-07-18T18:54:42.975Z,1.20
2023-07-18T18:57:09.458Z,1.42
2023-07-18T18:59:35.876Z,1.10
2023-07-18T19:02:02.380Z,1.60
2023-07-18T19:04:28.915Z,1.13
2023-07-18T19:06:55.450Z,1.42
2023-07-18T19:09:22.013Z,1.42
2023-07-18T19:11:48.770Z,1.42
2023-07-18T19:14:15.214Z,1.35
2023-07-18T19:16:41.816Z,1.50
2023-07-18T19:19:08.393Z,1.30
2023-07-18T19:21:35.155Z,1.20
2023-07-18T19:24:01.720Z,1.02
2023-07-18T19:26:28.177Z,1.38
2023-07-18T19:28:54.850Z,1.30
2023-07-18T19:31:21.486Z,1.75
2023-07-18T19:33:48.300Z,1.70
2023-07-18T19:36:14.841Z,1.42
2023-07-18T19:38:41.281Z,1.50
2023-07-18T19:41:07.784Z,1.42
2023-07-18T19:43:34.229Z,1.17
2023-07-18T19:46:00.861Z,1.27
2023-07-18T19:48:27.371Z,1.40
2023-07-18T19:50:53.989Z,1.30
2023-07-18T19:53:21.359Z,1.20
2023-07-18T19:55:47.863Z,1.20
2023-07-18T19:58:14.330Z,1.02
2023-07-18T20:00:40.817Z,1.00
2023-07-18T20:03:07.345Z,1.15
2023-07-18T20:05:34.013Z,1.42
2023-07-18T20:08:00.600Z,1.10
2023-07-18T20:10:27.134Z,1.00
2023-07-18T20:12:53.600Z,0.93
2023-07-18T20:15:20.089Z,1.00
2023-07-18T20:17:46.636Z,0.93
2023-07-18T20:20:13.165Z,0.90
2023-07-18T20:22:39.848Z,1.10
2023-07-18T20:25:06.607Z,1.00
2023-07-18T20:27:33.173Z,0.90
2023-07-18T20:29:59.724Z,0.88
2023-07-18T20:32:26.160Z,0.90
2023-07-18T20:34:52.658Z,1.10
2023-07-18T20:37:19.084Z,0.93
2023-07-18T20:39:45.530Z,1.10
2023-07-18T20:42:12.007Z,0.80
2023-07-18T20:44:38.490Z,1.00
2023-07-18T20:47:05.339Z,0.90
2023-07-18T20:49:31.801Z,1.00
2023-07-18T20:51:58.254Z,0.90
2023-07-18T20:54:24.712Z,0.77
2023-07-18T20:56:51.160Z,0.90
2023-07-18T20:59:17.630Z,0.98
2023-07-18T21:01:44.160Z,0.98
2023-07-18T21:04:10.655Z,0.80
2023-07-18T21:06:37.194Z,1.10
2023-07-18T21:09:03.767Z,0.90
2023-07-18T21:11:30.409Z,1.10
2023-07-18T21:13:56.870Z,0.85
2023-07-18T21:16:23.484Z,1.30
2023-07-18T21:18:50.096Z,1.30
2023-07-18T21:21:16.532Z,1.10
2023-07-18T21:23:43.350Z,1.05
2023-07-18T21:26:09.855Z,1.40
2023-07-18T21:28:39.656Z,1.10
2023-07-18T21:31:10.496Z,1.20
2023-07-18T21:33:36.941Z,1.20
2023-07-18T21:36:03.525Z,1.17
2023-07-18T21:38:29.959Z,1.42
2023-07-18T21:40:56.418Z,1.20
2023-07-18T21:43:22.919Z,1.10
2023-07-18T21:45:49.639Z,1.20
2023-07-18T21:48:16.188Z,1.20
2023-07-18T21:50:42.633Z,1.30
2023-07-18T21:53:09.328Z,1.50
2023-07-18T21:55:36.471Z,1.38
2023-07-18T21:58:02.938Z,1.30
2023-07-18T22:00:29.429Z,1.00
2023-07-18T22:02:56.304Z,1.30
2023-07-18T22:05:22.950Z,1.10
2023-07-18T22:07:49.406Z,1.20
2023-07-18T22:10:15.861Z,1.15
2023-07-18T22:12:42.508Z,1.20
2023-07-18T22:15:09.845Z,1.10
2023-07-18T22:17:37.390Z,1.10
2023-07-18T22:20:05.219Z,1.00
2023-07-18T22:22:31.829Z,1.35
2023-07-18T22:24:58.443Z,1.25
2023-07-18T22:27:25.635Z,1.08
2023-07-18T22:29:52.483Z,1.00
2023-07-18T22:32:18.934Z,1.30
2023-07-18T22:34:45.417Z,1.08
2023-07-18T22:37:12.008Z,1.08
2023-07-18T22:39:40.350Z,1.20
2023-07-18T22:42:17.077Z,1.20
2023-07-18T22:47:11.225Z,0.93
2023-07-18T22:49:38.368Z,1.10
2023-07-18T22:52:06.322Z,1.10
2023-07-18T22:54:34.350Z,1.00
2023-07-18T22:57:00.947Z,1.20
2023-07-18T22:59:27.415Z,1.30
2023-07-18T23:01:53.892Z,1.40
2023-07-18T23:04:20.327Z,1.05
2023-07-18T23:06:46.786Z,0.98
2023-07-18T23:09:13.296Z,0.88
2023-07-18T23:11:39.764Z,1.10
2023-07-18T23:14:06.263Z,1.20
2023-07-18T23:25:01.489Z,1.10
2023-07-18T23:27:27.966Z,1.15
2023-07-18T23:29:54.517Z,1.10
2023-07-18T23:32:21.032Z,1.10
2023-07-18T23:34:47.591Z,1.50
2023-07-18T23:37:14.066Z,1.05
2023-07-18T23:39:40.526Z,1.35
2023-07-18T23:42:07.553Z,1.30
2023-07-18T23:44:35.886Z,0.95
2023-07-18T23:47:02.443Z,1.23
2023-07-18T23:49:28.916Z,1.15
2023-07-18T23:51:55.370Z,1.13
2023-07-18T23:54:21.815Z,1.40
2023-07-18T23:56:48.248Z,1.45
2023-07-18T23:59:14.740Z,1.10
